WetterOnline ( https://www.wetteronline.de )

Wetter aktuell Fehmarn

Aktuelles Wetter: Westermarkelsdorf (9m)

6-stündlich | Neueste Meldungen
Ortszeit Temperatur Wetter
Mo, 19.08. 2:00 16.7° C wolkenlos
So, 18.08. 20:00 17.5° C leicht bewölkt
So, 18.08. 14:00 18.5° C Sprühregen
So, 18.08. 8:00 17.3° C bewölkt
So, 18.08. 2:00 17.6° C bewölkt
Sa, 17.08. 20:00 18.6° C wolkenlos
Sa, 17.08. 14:00 20.6° C wolkig
Sa, 17.08. 8:00 15.7° C leichter Regen
Ortszeit Temperatur Wetter
Mo, 19.08. 5:00 16.3° C wolkig
Mo, 19.08. 4:50 16.3° C wolkig
Mo, 19.08. 4:40 16.4° C wolkig
Mo, 19.08. 4:30 16.5° C leicht bewölkt
Mo, 19.08. 4:20 16.5° C leicht bewölkt
Mo, 19.08. 4:10 16.3° C leicht bewölkt
Mo, 19.08. 4:00 16.3° C leicht bewölkt
Mo, 19.08. 3:30 16.6° C wolkenlos
Mo, 19.08. 3:00 16.4° C leicht bewölkt
Mo, 19.08. 2:30 16.8° C wolkig
Mo, 19.08. 2:00 16.7° C wolkenlos
Ortszeit Relative Feuchte Sichtweite
Mo, 19.08. 2:00 84% 45 km
So, 18.08. 20:00 79% 50 km
So, 18.08. 14:00 80% 28 km
So, 18.08. 8:00 94% 12 km
So, 18.08. 2:00 90% 40 km
Sa, 17.08. 20:00 90% 35 km
Sa, 17.08. 14:00 71% 55 km
Sa, 17.08. 8:00 87% 25 km
Ortszeit Relative Feuchte Sichtweite
Mo, 19.08. 5:00 89% -
Mo, 19.08. 4:50 89% -
Mo, 19.08. 4:40 89% -
Mo, 19.08. 4:30 89% 24 km
Mo, 19.08. 4:20 89% -
Mo, 19.08. 4:10 90% -
Mo, 19.08. 4:00 89% 28 km
Mo, 19.08. 3:30 88% 30 km
Mo, 19.08. 3:00 86% 30 km
Mo, 19.08. 2:30 85% 40 km
Mo, 19.08. 2:00 84% 45 km
Ortszeit Niederschlagsmenge Niederschlagsart
Mo, 19.08. 2:00 0.0 l/m2 in 6 Std. -
So, 18.08. 20:00 0.5 l/m2 in 12 Std. Regen
So, 18.08. 14:00 0.1 l/m2 in 6 Std. Regen
So, 18.08. 8:00 0.6 l/m2 in 12 Std. -
So, 18.08. 2:00 0.6 l/m2 in 6 Std. Regen
Sa, 17.08. 20:00 3 l/m2 in 12 Std. Regen
Sa, 17.08. 14:00 2 l/m2 in 6 Std. Regen
Sa, 17.08. 8:00 2 l/m2 in 12 Std. Regen
Ortszeit Niederschlagsmenge Niederschlagsart
Mo, 19.08. 5:00 0.0 l/m2 in 1 Std. -
Mo, 19.08. 4:50 keine Meldung -
Mo, 19.08. 4:40 keine Meldung -
Mo, 19.08. 4:30 0.0 l/m2 in 1 Std. -
Mo, 19.08. 4:20 keine Meldung -
Mo, 19.08. 4:10 keine Meldung -
Mo, 19.08. 4:00 0.0 l/m2 in 1 Std. -
Mo, 19.08. 3:30 0.0 l/m2 in 1 Std. -
Mo, 19.08. 3:00 0.0 l/m2 in 1 Std. -
Mo, 19.08. 2:30 0.0 l/m2 in 1 Std. -
Mo, 19.08. 2:00 0.0 l/m2 in 1 Std. -
Ortszeit Stärke Spitze Richtung
km/h Bft. km/h Grad Sektor
Mo, 19.08. 2:00 29 5 43 240° SW
So, 18.08. 20:00 28 4 37 260° W
So, 18.08. 14:00 17 3 20 270° W
So, 18.08. 8:00 7 2 25 190° S
So, 18.08. 2:00 11 2 29 200° S
Sa, 17.08. 20:00 13 3 39 210° SW
Sa, 17.08. 14:00 22 4 36 200° S
Sa, 17.08. 8:00 14 3 36 160° S
Ortszeit Stärke Spitze Richtung
km/h Bft. km/h Grad Sektor
Mo, 19.08. 5:00 18 3 32 220° SW
Mo, 19.08. 4:50 18 3 - 220° SW
Mo, 19.08. 4:40 20 4 - 220° SW
Mo, 19.08. 4:30 18 3 32 220° SW
Mo, 19.08. 4:20 18 3 - 220° SW
Mo, 19.08. 4:10 19 3 - 220° SW
Mo, 19.08. 4:00 19 3 35 230° SW
Mo, 19.08. 3:30 22 4 35 240° SW
Mo, 19.08. 3:00 20 4 37 240° SW
Mo, 19.08. 2:30 26 4 37 240° SW
Mo, 19.08. 2:00 29 5 40 240° SW
Ortszeit Untergrenze Bedeckung Gattung
total tief tief mittel hoch
Mo, 19.08. 2:00 - 0/8 0/8 - - -
So, 18.08. 20:00 8100 m 7/8 0/8 - - -
So, 18.08. 14:00 720 m 8/8 8/8 - - -
So, 18.08. 8:00 240 m 8/8 5/8 - - -
So, 18.08. 2:00 1140 m 8/8 7/8 - - -
Sa, 17.08. 20:00 390 m 0/8 0/8 - - -
Sa, 17.08. 14:00 690 m 7/8 6/8 - - -
Sa, 17.08. 8:00 1290 m 8/8 8/8 - - -
Ortszeit Bedeckungsgrad in Achtel und Wolkenuntergrenze
Mo, 19.08. 5:00 8(9000m)
Mo, 19.08. 4:50 8(9000m)
Mo, 19.08. 4:40 8(9000m)
Mo, 19.08. 4:30 6(9000m) 6(9000m)
Mo, 19.08. 4:20 6(9000m) 6(9000m)
Mo, 19.08. 4:10 5(9000m) 6(9000m)
Mo, 19.08. 4:00 2(8700m) 3(9000m)
Mo, 19.08. 3:30 keine Wolken
Mo, 19.08. 3:00 3(9000m)
Mo, 19.08. 2:30 6(1800m)
Mo, 19.08. 2:00 keine Wolken
Ortszeit Luftdruck NN (hPa) Tendenz (hPa in 3 Std.)
Mo, 19.08. 2:00 1008 + 0,8
So, 18.08. 20:00 1005 + 0,6
So, 18.08. 14:00 1004 - 0,6
So, 18.08. 8:00 1005 - 0,3
So, 18.08. 2:00 1006 - 0,4
Sa, 17.08. 20:00 1007 0,0
Sa, 17.08. 14:00 1006 - 1,1
Sa, 17.08. 8:00 1008 - 1,0
Ortszeit Luftdruck NN (hPa) Tendenz (hPa in 3 Std.)
Mo, 19.08. 5:00 1009 + 1,1
Mo, 19.08. 4:50 1009 keine Meldung
Mo, 19.08. 4:40 1009 keine Meldung
Mo, 19.08. 4:30 1009 + 1,4
Mo, 19.08. 4:20 1009 keine Meldung
Mo, 19.08. 4:10 1009 keine Meldung
Mo, 19.08. 4:00 1009 + 0,9
Mo, 19.08. 3:30 1009 + 1,0
Mo, 19.08. 3:00 1009 + 0,9
Mo, 19.08. 2:30 1009 + 1,4
Mo, 19.08. 2:00 1008 + 0,8
Ortszeit Schneehöhe (cm)
Mo, 19.08. 2:00 -
So, 18.08. 20:00 -
So, 18.08. 14:00 -
So, 18.08. 8:00 -
So, 18.08. 2:00 -
Sa, 17.08. 20:00 -
Sa, 17.08. 14:00 -
Sa, 17.08. 8:00 -
Ortszeit Schneehöhe (cm)
Mo, 19.08. 5:00 -
Mo, 19.08. 4:50 -
Mo, 19.08. 4:40 -
Mo, 19.08. 4:30 -
Mo, 19.08. 4:20 -
Mo, 19.08. 4:10 -
Mo, 19.08. 4:00 -
Mo, 19.08. 3:30 -
Mo, 19.08. 3:00 -
Mo, 19.08. 2:30 -
Mo, 19.08. 2:00 -
Link zu dieser Seite / Seite empfehlen

Das Wetter in ...